createdAt,value
2017-05-09T07:11:33.183Z,1016.04
2017-05-09T07:12:34.611Z,1016.07
2017-05-09T07:13:36.053Z,1016.04
2017-05-09T07:14:37.488Z,1016.03
2017-05-09T07:15:38.925Z,1016.06
2017-05-09T07:16:40.370Z,1016.06
2017-05-09T07:17:41.801Z,1015.99
2017-05-09T07:18:43.236Z,1016.00
2017-05-09T07:19:44.668Z,1015.97
2017-05-09T07:20:46.102Z,1015.92
2017-05-09T07:21:48.194Z,1015.94
2017-05-09T07:22:49.649Z,1015.92
2017-05-09T07:23:51.078Z,1015.91
2017-05-09T07:24:52.516Z,1015.97
2017-05-09T07:25:53.949Z,1015.91
2017-05-09T07:26:55.401Z,1015.94
2017-05-09T07:27:56.825Z,1015.95
2017-05-09T07:28:58.323Z,1015.90
2017-05-09T07:29:59.818Z,1015.94
2017-05-09T07:31:01.247Z,1015.86
2017-05-09T07:32:02.742Z,1015.92
2017-05-09T07:33:04.230Z,1015.90
2017-05-09T07:34:05.669Z,1015.89
2017-05-09T07:35:07.101Z,1015.95
2017-05-09T07:36:08.539Z,1015.90
2017-05-09T07:37:10.012Z,1015.89
2017-05-09T07:38:11.683Z,1015.92
2017-05-09T07:39:13.229Z,1015.92
2017-05-09T07:40:14.668Z,1015.89
2017-05-09T07:41:16.123Z,1015.89
2017-05-09T07:42:17.600Z,1015.90
2017-05-09T07:43:19.040Z,1015.93
2017-05-09T07:44:20.699Z,1015.90
2017-05-09T07:45:22.400Z,1015.83
2017-05-09T07:46:24.050Z,1015.87
2017-05-09T07:47:25.585Z,1015.87
2017-05-09T07:48:27.348Z,1015.88
2017-05-09T07:49:28.786Z,1015.89
2017-05-09T07:50:30.225Z,1015.86
2017-05-09T07:51:31.664Z,1015.88
2017-05-09T07:52:33.099Z,1015.85
2017-05-09T07:53:34.527Z,1015.83
2017-05-09T07:54:35.972Z,1015.81
2017-05-09T07:55:37.429Z,1015.77
2017-05-09T07:56:38.936Z,1015.76
2017-05-09T07:57:40.407Z,1015.75
2017-05-09T07:58:41.895Z,1015.73
2017-05-09T07:59:43.339Z,1015.71
2017-05-09T08:00:44.787Z,1015.71
2017-05-09T08:01:46.230Z,1015.71
2017-05-09T08:02:47.678Z,1015.70
2017-05-09T08:03:49.113Z,1015.70
2017-05-09T08:04:50.643Z,1015.69
2017-05-09T08:05:52.089Z,1015.70
2017-05-09T08:06:53.532Z,1015.74
2017-05-09T08:07:54.976Z,1015.69
2017-05-09T08:08:56.455Z,1015.72
2017-05-09T08:09:57.922Z,1015.77
2017-05-09T08:10:59.390Z,1015.73
2017-05-09T08:12:00.821Z,1015.72
2017-05-09T08:13:02.315Z,1015.69
2017-05-09T08:14:03.761Z,1015.70
2017-05-09T08:15:05.512Z,1015.73
2017-05-09T08:16:06.994Z,1015.68
2017-05-09T08:17:08.476Z,1015.69
2017-05-09T08:18:10.377Z,1015.69
2017-05-09T08:19:12.720Z,1015.70
2017-05-09T08:20:14.382Z,1015.69
2017-05-09T08:21:16.378Z,1015.67
2017-05-09T08:22:18.367Z,1015.68
2017-05-09T08:23:20.014Z,1015.60
2017-05-09T08:24:23.312Z,1015.59
2017-05-09T08:25:24.645Z,1015.57
2017-05-09T08:26:29.282Z,1015.60
2017-05-09T08:27:31.518Z,1015.54
2017-05-09T08:28:35.018Z,1015.53
2017-05-09T08:29:36.412Z,1015.54
2017-05-09T08:30:37.953Z,1015.50
2017-05-09T08:31:39.390Z,1015.56
2017-05-09T08:32:40.929Z,1015.54
2017-05-09T08:33:42.525Z,1015.55
2017-05-09T08:34:44.041Z,1015.53
2017-05-09T08:35:45.522Z,1015.53
2017-05-09T08:36:47.022Z,1015.57
2017-05-09T08:37:48.759Z,1015.53
2017-05-09T08:38:50.293Z,1015.54
2017-05-09T08:39:51.929Z,1015.54
2017-05-09T08:40:53.526Z,1015.54
2017-05-09T08:41:55.063Z,1015.53
2017-05-09T08:42:56.510Z,1015.51
2017-05-09T08:43:58.111Z,1015.54
2017-05-09T08:44:59.563Z,1015.50
2017-05-09T08:46:01.003Z,1015.50
2017-05-09T08:47:02.460Z,1015.46
2017-05-09T08:48:03.928Z,1015.46
2017-05-09T08:49:05.430Z,1015.50
2017-05-09T08:50:06.979Z,1015.51
2017-05-09T08:51:08.431Z,1015.52
2017-05-09T08:52:09.917Z,1015.48
2017-05-09T08:53:11.470Z,1015.49
2017-05-09T08:54:13.041Z,1015.45
2017-05-09T08:55:14.543Z,1015.46
2017-05-09T08:56:16.082Z,1015.45
2017-05-09T08:57:17.584Z,1015.42
2017-05-09T08:58:19.010Z,1015.40
2017-05-09T08:59:20.461Z,1015.30
2017-05-09T09:00:21.949Z,1015.29
2017-05-09T09:01:23.424Z,1015.32
2017-05-09T09:02:25.078Z,1015.27
2017-05-09T09:03:26.658Z,1015.26
2017-05-09T09:04:28.213Z,1015.24
2017-05-09T09:05:29.889Z,1015.23
2017-05-09T09:06:31.478Z,1015.20
2017-05-09T09:07:32.929Z,1015.19
2017-05-09T09:08:34.310Z,1015.18
2017-05-09T09:09:35.753Z,1015.26
2017-05-09T09:10:37.206Z,1015.25
2017-05-09T09:11:38.767Z,1015.20
2017-05-09T09:12:40.242Z,1015.20
2017-05-09T09:13:41.677Z,1015.18
2017-05-09T09:14:43.115Z,1015.22
2017-05-09T09:15:44.549Z,1015.23
2017-05-09T09:16:46.023Z,1015.21
2017-05-09T09:17:47.563Z,1015.18
2017-05-09T09:18:49.025Z,1015.18
2017-05-09T09:19:50.463Z,1015.21
2017-05-09T09:20:51.905Z,1015.16
2017-05-09T09:21:53.410Z,1015.10
2017-05-09T09:22:54.929Z,1015.15
2017-05-09T09:23:56.397Z,1015.11
2017-05-09T09:24:58.001Z,1015.17
2017-05-09T09:25:59.499Z,1015.16
2017-05-09T09:27:00.949Z,1015.14
2017-05-09T09:28:02.340Z,1015.11
2017-05-09T09:29:03.936Z,1015.14
2017-05-09T09:30:05.489Z,1015.09
2017-05-09T09:31:06.929Z,1015.13
2017-05-09T09:32:08.325Z,1015.10
2017-05-09T09:33:09.791Z,1015.09
2017-05-09T09:34:11.266Z,1015.08
2017-05-09T09:35:12.713Z,1015.06
2017-05-09T09:36:14.259Z,1015.09
2017-05-09T09:37:15.901Z,1015.09
2017-05-09T09:38:17.415Z,1015.08
2017-05-09T09:39:18.844Z,1015.09
2017-05-09T09:40:20.291Z,1015.08
2017-05-09T09:41:21.740Z,1015.14
2017-05-09T09:42:23.233Z,1015.12
2017-05-09T09:43:24.744Z,1015.11
2017-05-09T09:44:26.352Z,1015.10
2017-05-09T09:45:27.992Z,1015.11
2017-05-09T09:46:29.558Z,1015.06
2017-05-09T09:47:31.001Z,1015.06
2017-05-09T09:48:32.464Z,1014.99
2017-05-09T09:49:34.040Z,1015.05
2017-05-09T09:50:35.560Z,1015.01
2017-05-09T09:51:37.148Z,1015.02
2017-05-09T09:52:38.677Z,1015.07
2017-05-09T09:53:40.145Z,1015.03
2017-05-09T09:54:41.655Z,1015.03
2017-05-09T09:55:43.233Z,1015.01
2017-05-09T09:56:44.680Z,1015.00
2017-05-09T09:57:46.157Z,1014.97
2017-05-09T09:58:47.630Z,1015.02
2017-05-09T09:59:49.074Z,1014.99
2017-05-09T10:00:50.705Z,1015.00
2017-05-09T10:01:52.527Z,1014.95
2017-05-09T10:02:54.015Z,1014.95
2017-05-09T10:03:55.464Z,1014.94
2017-05-09T10:04:56.955Z,1014.94
2017-05-09T10:05:58.450Z,1014.96
2017-05-09T10:07:00.075Z,1014.93
2017-05-09T10:08:01.696Z,1014.86
2017-05-09T10:09:03.243Z,1014.87
2017-05-09T10:10:04.685Z,1014.85
2017-05-09T10:11:06.152Z,1014.89
2017-05-09T10:12:07.558Z,1014.83
2017-05-09T10:13:09.168Z,1014.87
2017-05-09T10:14:10.876Z,1014.87
2017-05-09T10:15:12.563Z,1014.82
2017-05-09T10:16:15.319Z,1014.82
2017-05-09T10:17:18.718Z,1014.77
2017-05-09T10:18:20.162Z,1014.78
2017-05-09T10:19:21.597Z,1014.77
2017-05-09T10:20:23.098Z,1014.76
2017-05-09T10:21:24.672Z,1014.75
2017-05-09T10:22:26.302Z,1014.74
2017-05-09T10:23:27.767Z,1014.70
2017-05-09T10:24:29.288Z,1014.71
2017-05-09T10:25:30.729Z,1014.71
2017-05-09T10:26:32.217Z,1014.73
2017-05-09T10:27:33.665Z,1014.73
2017-05-09T10:28:35.088Z,1014.72
2017-05-09T10:29:36.539Z,1014.66
2017-05-09T10:30:38.014Z,1014.68
2017-05-09T10:31:39.523Z,1014.67
2017-05-09T10:32:40.961Z,1014.65
2017-05-09T10:33:42.400Z,1014.65
2017-05-09T10:34:43.841Z,1014.62
2017-05-09T10:35:45.406Z,1014.62
2017-05-09T10:36:46.910Z,1014.66
2017-05-09T10:37:48.385Z,1014.65
2017-05-09T10:38:49.846Z,1014.57
2017-05-09T10:39:51.363Z,1014.56
2017-05-09T10:40:52.805Z,1014.55
2017-05-09T10:41:54.252Z,1014.56
2017-05-09T10:42:55.685Z,1014.53
2017-05-09T10:43:57.126Z,1014.51
2017-05-09T10:44:59.159Z,1014.54
2017-05-09T10:46:00.455Z,1014.49
2017-05-09T10:47:01.907Z,1014.48
2017-05-09T10:48:03.347Z,1014.51
2017-05-09T10:49:04.824Z,1014.48
2017-05-09T10:50:06.395Z,1014.52
2017-05-09T10:51:07.844Z,1014.53
2017-05-09T10:52:09.304Z,1014.47
2017-05-09T10:53:11.016Z,1014.50
2017-05-09T10:54:12.606Z,1014.49
2017-05-09T10:55:14.081Z,1014.46
2017-05-09T10:56:15.608Z,1014.44
2017-05-09T10:57:17.194Z,1014.42
2017-05-09T10:58:18.765Z,1014.44
2017-05-09T10:59:20.231Z,1014.40
2017-05-09T11:00:21.678Z,1014.36
2017-05-09T11:01:23.136Z,1014.42
2017-05-09T11:02:24.575Z,1014.37
2017-05-09T11:03:26.024Z,1014.31
2017-05-09T11:04:27.471Z,1014.32
2017-05-09T11:05:28.912Z,1014.24
2017-05-09T11:06:30.409Z,1014.30
2017-05-09T11:07:31.854Z,1014.21
2017-05-09T11:08:33.294Z,1014.25
2017-05-09T11:09:34.740Z,1014.26
2017-05-09T11:10:36.208Z,1014.22
2017-05-09T11:11:37.646Z,1014.23
2017-05-09T11:12:39.134Z,1014.16
2017-05-09T11:13:40.583Z,1014.15
2017-05-09T11:14:42.041Z,1014.17
2017-05-09T11:15:43.597Z,1014.15
2017-05-09T11:16:45.090Z,1014.15
2017-05-09T11:17:46.571Z,1014.16
2017-05-09T11:18:48.395Z,1014.11
2017-05-09T11:19:50.009Z,1014.07
2017-05-09T11:20:51.638Z,1014.10
2017-05-09T11:21:53.076Z,1014.06
2017-05-09T11:22:54.458Z,1014.08
2017-05-09T11:23:55.901Z,1014.06
2017-05-09T11:24:57.334Z,1014.02
2017-05-09T11:25:58.771Z,1014.02
2017-05-09T11:27:00.212Z,1014.04
2017-05-09T11:28:01.684Z,1014.06
2017-05-09T11:29:03.115Z,1014.04
2017-05-09T11:30:04.549Z,1013.99
2017-05-09T11:31:05.989Z,1014.01
2017-05-09T11:32:07.427Z,1013.94
2017-05-09T11:33:08.865Z,1013.92
2017-05-09T11:34:10.371Z,1013.91
2017-05-09T11:35:11.794Z,1013.84
2017-05-09T11:36:13.236Z,1013.85
2017-05-09T11:37:14.714Z,1013.87
2017-05-09T11:38:16.178Z,1013.84
2017-05-09T11:39:17.635Z,1013.83
2017-05-09T11:40:19.085Z,1013.85
2017-05-09T11:41:20.538Z,1013.81
2017-05-09T11:42:22.137Z,1013.79
2017-05-09T11:43:23.827Z,1013.83
2017-05-09T11:44:25.393Z,1013.82
2017-05-09T11:45:26.839Z,1013.82
2017-05-09T11:46:28.393Z,1013.80
2017-05-09T11:47:29.872Z,1013.80
2017-05-09T11:48:31.345Z,1013.75
2017-05-09T11:49:32.869Z,1013.70
2017-05-09T11:50:34.340Z,1013.77
2017-05-09T11:51:35.793Z,1013.75
2017-05-09T11:52:37.233Z,1013.78
2017-05-09T11:53:38.682Z,1013.73
2017-05-09T11:54:40.141Z,1013.77
2017-05-09T11:55:41.586Z,1013.75
2017-05-09T11:56:43.021Z,1013.69
2017-05-09T11:57:44.462Z,1013.75
2017-05-09T11:58:45.932Z,1013.75
2017-05-09T11:59:47.349Z,1013.75
2017-05-09T12:00:48.795Z,1013.72
2017-05-09T12:01:50.227Z,1013.73
2017-05-09T12:02:51.660Z,1013.71
2017-05-09T12:03:53.118Z,1013.71
2017-05-09T12:04:54.576Z,1013.71
2017-05-09T12:05:56.028Z,1013.66
2017-05-09T12:06:57.492Z,1013.65
2017-05-09T12:07:58.925Z,1013.61
2017-05-09T12:09:00.380Z,1013.62
2017-05-09T12:10:01.825Z,1013.59
2017-05-09T12:11:03.269Z,1013.58
2017-05-09T12:12:04.842Z,1013.61
2017-05-09T12:13:06.393Z,1013.61
2017-05-09T12:14:09.419Z,1013.56
2017-05-09T12:15:11.025Z,1013.66
